createdAt,value
2022-11-10T00:01:21.648Z,1.08
2022-11-10T00:03:49.310Z,1.15
2022-11-10T00:06:17.000Z,0.85
2022-11-10T00:08:44.621Z,1.25
2022-11-10T00:11:12.214Z,1.02
2022-11-10T00:13:39.854Z,1.27
2022-11-10T00:16:09.798Z,1.50
2022-11-10T00:18:39.260Z,1.02
2022-11-10T00:21:07.474Z,0.98
2022-11-10T00:23:35.052Z,0.98
2022-11-10T00:26:02.666Z,0.70
2022-11-10T00:28:30.761Z,1.00
2022-11-10T00:30:58.339Z,0.88
2022-11-10T00:33:25.917Z,1.48
2022-11-10T00:35:54.887Z,1.20
2022-11-10T00:38:22.414Z,1.20
2022-11-10T00:40:49.982Z,0.80
2022-11-10T00:43:20.242Z,1.25
2022-11-10T00:45:50.037Z,0.75
2022-11-10T00:48:17.618Z,0.73
2022-11-10T00:50:45.210Z,1.05
2022-11-10T00:53:14.164Z,1.02
2022-11-10T00:55:41.854Z,0.90
2022-11-10T00:58:09.405Z,1.83
2022-11-10T01:00:36.917Z,0.82
2022-11-10T01:03:04.477Z,1.20
2022-11-10T01:05:32.045Z,1.05
2022-11-10T01:07:59.623Z,1.10
2022-11-10T01:10:28.620Z,0.88
2022-11-10T01:12:56.135Z,1.25
2022-11-10T01:15:27.545Z,0.90
2022-11-10T01:17:55.985Z,1.10
2022-11-10T01:20:23.513Z,1.42
2022-11-10T01:22:51.041Z,0.95
2022-11-10T01:25:18.581Z,1.23
2022-11-10T01:27:47.642Z,1.00
2022-11-10T01:30:15.278Z,1.00
2022-11-10T01:32:42.861Z,1.02
2022-11-10T01:35:10.404Z,0.88
2022-11-10T01:37:38.029Z,0.82
2022-11-10T01:40:06.951Z,1.02
2022-11-10T01:42:43.629Z,1.42
2022-11-10T01:45:46.878Z,1.23
2022-11-10T01:48:16.912Z,1.25
2022-11-10T01:50:44.260Z,1.30
2022-11-10T01:53:14.558Z,1.30
2022-11-10T01:55:43.459Z,1.23
2022-11-10T01:58:11.039Z,1.38
2022-11-10T02:00:38.561Z,1.33
2022-11-10T02:03:10.193Z,1.33
2022-11-10T02:05:37.645Z,0.93
2022-11-10T02:08:05.567Z,1.10
2022-11-10T02:10:33.172Z,1.17
2022-11-10T02:13:00.698Z,1.42
2022-11-10T02:15:28.174Z,1.50
2022-11-10T02:17:55.829Z,1.23
2022-11-10T02:20:24.789Z,1.67
2022-11-10T02:22:53.768Z,1.10
2022-11-10T02:25:22.121Z,1.10
2022-11-10T02:27:49.562Z,1.48
2022-11-10T02:30:17.157Z,1.52
2022-11-10T02:32:44.672Z,1.45
2022-11-10T02:35:12.099Z,1.23
2022-11-10T02:37:39.643Z,1.20
2022-11-10T02:40:09.921Z,1.00
2022-11-10T02:42:37.471Z,1.15
2022-11-10T02:45:05.785Z,1.05
2022-11-10T02:47:33.316Z,1.52
2022-11-10T02:50:00.798Z,1.17
2022-11-10T02:52:28.317Z,1.83
2022-11-10T02:54:55.897Z,1.20
2022-11-10T02:57:24.928Z,1.50
2022-11-10T02:59:52.448Z,1.08
2022-11-10T03:02:19.974Z,1.42
2022-11-10T03:04:47.430Z,1.42
2022-11-10T03:07:14.959Z,1.63
2022-11-10T03:09:42.525Z,1.17
2022-11-10T03:12:10.068Z,1.00
2022-11-10T03:14:39.133Z,1.50
2022-11-10T03:17:06.618Z,1.10
2022-11-10T03:19:34.173Z,1.23
2022-11-10T03:22:02.499Z,1.63
2022-11-10T03:24:30.083Z,1.00
2022-11-10T03:26:57.759Z,1.38
2022-11-10T03:29:25.376Z,1.45
2022-11-10T03:31:54.415Z,1.17
2022-11-10T03:34:21.937Z,1.25
2022-11-10T03:36:49.485Z,1.33
2022-11-10T03:39:17.095Z,1.42
2022-11-10T03:41:44.622Z,1.00
2022-11-10T03:44:12.101Z,1.48
2022-11-10T03:46:43.304Z,1.48
2022-11-10T03:49:12.617Z,1.00
2022-11-10T03:51:40.197Z,1.15
2022-11-10T03:54:07.763Z,1.52
2022-11-10T03:56:35.245Z,1.00
2022-11-10T03:59:02.873Z,1.27
2022-11-10T04:01:30.395Z,0.88
2022-11-10T04:03:58.066Z,1.25
2022-11-10T04:06:27.096Z,1.30
2022-11-10T04:08:54.713Z,1.50
2022-11-10T04:11:22.186Z,1.30
2022-11-10T04:13:49.754Z,1.27
2022-11-10T04:16:17.416Z,1.10
2022-11-10T04:18:44.983Z,1.10
2022-11-10T04:21:12.530Z,1.10
2022-11-10T04:23:41.513Z,0.95
2022-11-10T04:26:09.716Z,1.42
2022-11-10T04:28:37.285Z,1.10
2022-11-10T04:31:05.017Z,1.67
2022-11-10T04:33:32.591Z,1.27
2022-11-10T04:36:00.158Z,1.15
2022-11-10T04:38:27.670Z,0.90
2022-11-10T04:40:56.681Z,1.17
2022-11-10T04:43:24.560Z,1.23
2022-11-10T04:45:52.569Z,0.95
2022-11-10T04:48:20.019Z,1.13
2022-11-10T04:50:47.671Z,1.38
2022-11-10T04:53:15.222Z,1.50
2022-11-10T04:55:43.058Z,1.20
2022-11-10T04:58:12.096Z,1.48
2022-11-10T05:00:39.959Z,1.40
2022-11-10T05:03:09.409Z,1.30
2022-11-10T05:05:37.318Z,1.50
2022-11-10T05:08:05.243Z,1.10
2022-11-10T05:10:32.725Z,1.08
2022-11-10T05:13:00.186Z,1.33
2022-11-10T05:15:29.172Z,1.23
2022-11-10T05:17:56.747Z,0.98
2022-11-10T05:20:24.790Z,1.00
2022-11-10T05:22:52.739Z,0.93
2022-11-10T05:25:20.305Z,0.93
2022-11-10T05:27:47.806Z,1.00
2022-11-10T05:30:15.986Z,1.30
2022-11-10T05:32:44.977Z,1.40
2022-11-10T05:35:12.441Z,1.40
2022-11-10T05:37:40.494Z,0.85
2022-11-10T05:40:09.213Z,1.20
2022-11-10T05:42:43.747Z,0.82
2022-11-10T05:45:11.243Z,0.82
2022-11-10T05:47:38.770Z,0.98
2022-11-10T05:50:09.382Z,1.13
2022-11-10T05:52:39.964Z,0.70
2022-11-10T05:55:08.206Z,0.73
2022-11-10T05:57:35.825Z,0.70
2022-11-10T06:00:03.858Z,0.80
2022-11-10T06:02:31.414Z,0.90
2022-11-10T06:04:58.908Z,0.98
2022-11-10T06:07:27.947Z,1.13
2022-11-10T06:09:55.560Z,0.90
2022-11-10T06:12:23.121Z,0.70
2022-11-10T06:14:50.774Z,0.75
2022-11-10T06:17:18.299Z,0.90
2022-11-10T06:19:45.758Z,0.93
2022-11-10T06:22:13.257Z,0.75
2022-11-10T06:24:42.213Z,1.23
2022-11-10T06:27:09.702Z,0.80
2022-11-10T06:29:37.326Z,0.60
2022-11-10T06:32:04.897Z,0.88
2022-11-10T06:34:32.436Z,0.80
2022-11-10T06:36:59.984Z,0.80
2022-11-10T06:39:27.482Z,0.75
2022-11-10T06:41:56.503Z,0.82
2022-11-10T06:44:24.014Z,0.60
2022-11-10T06:46:52.355Z,0.60
2022-11-10T06:49:20.012Z,0.85
2022-11-10T06:51:47.564Z,0.90
2022-11-10T06:54:15.064Z,0.77
2022-11-10T06:56:42.636Z,1.02
2022-11-10T06:59:11.666Z,0.52
2022-11-10T07:01:39.476Z,0.60
2022-11-10T07:04:19.184Z,0.80
2022-11-10T07:06:48.428Z,0.73
2022-11-10T07:09:16.048Z,0.50
2022-11-10T07:11:43.586Z,0.98
2022-11-10T07:14:12.632Z,0.57
2022-11-10T07:16:40.161Z,0.50
2022-11-10T07:19:07.857Z,0.68
2022-11-10T07:21:35.279Z,0.47
2022-11-10T07:24:02.815Z,0.63
2022-11-10T07:26:30.420Z,0.77
2022-11-10T07:28:57.869Z,0.70
2022-11-10T07:31:26.920Z,0.60
2022-11-10T07:33:54.819Z,0.75
2022-11-10T07:36:22.372Z,0.80
2022-11-10T07:38:49.921Z,0.55
2022-11-10T07:41:17.478Z,0.93
2022-11-10T07:43:45.056Z,0.68
2022-11-10T07:46:12.525Z,0.40
2022-11-10T07:48:41.486Z,1.08
2022-11-10T07:51:08.969Z,0.40
2022-11-10T07:53:36.465Z,0.50
2022-11-10T07:56:04.036Z,0.90
2022-11-10T07:58:31.589Z,0.80
2022-11-10T08:00:59.146Z,0.90
2022-11-10T08:03:26.803Z,0.82
2022-11-10T08:05:56.136Z,0.75
2022-11-10T08:08:23.743Z,0.60
2022-11-10T08:10:51.296Z,0.63
2022-11-10T08:13:18.950Z,0.70
2022-11-10T08:15:46.967Z,0.70
2022-11-10T08:18:16.993Z,0.75
2022-11-10T08:20:44.559Z,0.70
2022-11-10T08:23:13.552Z,0.57
2022-11-10T08:25:41.116Z,0.50
2022-11-10T08:28:10.008Z,0.68
2022-11-10T08:30:38.542Z,0.40
2022-11-10T08:33:06.672Z,0.60
2022-11-10T08:35:36.580Z,0.60
2022-11-10T08:38:09.783Z,0.70
2022-11-10T08:40:39.209Z,0.60
2022-11-10T08:43:06.720Z,0.60
2022-11-10T08:45:34.328Z,0.65
2022-11-10T08:48:02.754Z,0.60
2022-11-10T08:50:30.313Z,0.40
2022-11-10T08:52:57.818Z,0.50
2022-11-10T08:55:25.347Z,0.45
2022-11-10T08:57:57.944Z,0.63
2022-11-10T09:00:25.435Z,0.60
2022-11-10T09:02:52.906Z,0.60
2022-11-10T09:05:20.531Z,0.57
2022-11-10T09:07:48.820Z,1.00
2022-11-10T09:10:16.356Z,0.55
2022-11-10T09:12:44.027Z,0.63
2022-11-10T09:15:13.205Z,0.50
2022-11-10T09:17:41.539Z,0.70
2022-11-10T09:20:09.872Z,0.63
2022-11-10T09:22:37.432Z,0.77
2022-11-10T09:25:05.379Z,0.85
2022-11-10T09:27:36.322Z,0.77
2022-11-10T09:30:04.514Z,0.65
2022-11-10T09:32:33.588Z,0.70
2022-11-10T09:35:01.108Z,0.60
2022-11-10T09:37:28.691Z,0.55
2022-11-10T09:40:01.102Z,0.50
2022-11-10T09:42:33.254Z,0.53
2022-11-10T09:45:03.825Z,0.50
2022-11-10T09:50:34.040Z,0.50
2022-11-10T09:53:01.687Z,0.70
2022-11-10T09:55:34.959Z,0.90
2022-11-10T09:58:02.569Z,0.73
2022-11-10T10:00:30.290Z,0.55
2022-11-10T10:03:01.867Z,0.70
2022-11-10T10:05:40.257Z,0.50
2022-11-10T10:08:09.274Z,0.55
2022-11-10T10:10:40.171Z,0.50
2022-11-10T10:13:21.488Z,0.60
2022-11-10T10:15:57.313Z,0.65
2022-11-10T10:18:29.378Z,1.00
2022-11-10T10:21:06.690Z,0.50
2022-11-10T10:24:02.669Z,0.50
2022-11-10T10:26:24.678Z,0.68
2022-11-10T10:28:52.197Z,0.70
2022-11-10T10:31:21.779Z,0.40
2022-11-10T10:33:50.781Z,0.68
2022-11-10T10:36:19.975Z,0.80
2022-11-10T10:38:48.237Z,0.90
2022-11-10T10:41:23.572Z,0.70
2022-11-10T10:43:52.669Z,0.90
2022-11-10T10:46:20.253Z,1.08
2022-11-10T10:48:50.536Z,0.50
2022-11-10T10:51:30.620Z,0.80
2022-11-10T10:53:58.136Z,0.93
2022-11-10T10:56:27.761Z,0.90
2022-11-10T10:58:56.085Z,0.80
2022-11-10T11:01:28.824Z,0.73
2022-11-10T11:03:56.545Z,0.70
2022-11-10T11:06:24.593Z,0.45
2022-11-10T11:09:00.002Z,1.00
2022-11-10T11:11:29.621Z,1.02
2022-11-10T11:14:14.349Z,0.98
2022-11-10T11:16:49.875Z,0.80
2022-11-10T11:19:20.299Z,1.02
2022-11-10T11:21:57.084Z,0.98
2022-11-10T11:24:34.798Z,0.90
2022-11-10T11:27:04.635Z,0.90
2022-11-10T11:29:51.041Z,1.00
2022-11-10T11:32:27.019Z,0.95
2022-11-10T11:35:00.116Z,1.00
2022-11-10T11:37:30.190Z,1.53
2022-11-10T11:40:10.904Z,1.15
2022-11-10T11:42:46.159Z,1.08
2022-11-10T11:45:18.723Z,0.77
2022-11-10T11:48:11.380Z,1.02
2022-11-10T11:50:42.021Z,1.20
2022-11-10T11:53:17.732Z,1.02
2022-11-10T11:56:00.257Z,0.85
2022-11-10T11:58:34.019Z,1.20
2022-11-10T12:01:08.169Z,1.30
2022-11-10T12:03:53.982Z,1.48
2022-11-10T12:06:31.533Z,1.40
2022-11-10T12:09:01.531Z,1.40
2022-11-10T12:11:37.980Z,1.05
2022-11-10T12:14:08.952Z,1.30
2022-11-10T12:16:36.564Z,1.67
2022-11-10T12:19:08.782Z,1.60
2022-11-10T12:21:42.564Z,1.50
2022-11-10T12:24:26.098Z,1.85
2022-11-10T12:26:57.347Z,2.03
2022-11-10T12:29:29.781Z,1.35
2022-11-10T12:32:01.469Z,1.17
2022-11-10T12:34:32.682Z,1.60
2022-11-10T12:37:01.990Z,1.65
2022-11-10T12:39:36.852Z,1.60
2022-11-10T12:42:05.923Z,1.90
2022-11-10T12:44:35.823Z,1.50
2022-11-10T12:47:05.343Z,1.30
2022-11-10T12:49:35.701Z,1.73
2022-11-10T12:52:07.782Z,1.55
2022-11-10T12:54:35.491Z,1.55
2022-11-10T12:57:05.629Z,1.48
2022-11-10T12:59:33.601Z,1.45
2022-11-10T13:02:03.233Z,1.30
2022-11-10T13:04:30.931Z,1.30
2022-11-10T13:06:59.760Z,1.20
2022-11-10T13:09:28.556Z,1.58
2022-11-10T13:12:18.597Z,1.40
2022-11-10T13:14:46.237Z,1.50
2022-11-10T13:17:50.949Z,1.23
2022-11-10T13:20:48.500Z,1.65
2022-11-10T13:23:26.206Z,1.50
2022-11-10T13:25:55.974Z,1.35
2022-11-10T13:28:59.420Z,1.73
2022-11-10T13:31:49.408Z,1.40
2022-11-10T13:34:32.662Z,1.55
2022-11-10T13:37:00.258Z,1.42
2022-11-10T13:39:30.311Z,1.30
2022-11-10T13:42:00.971Z,1.60
2022-11-10T13:44:30.991Z,1.45
2022-11-10T13:47:24.875Z,1.75
2022-11-10T13:49:57.100Z,1.60
2022-11-10T13:52:27.981Z,2.45
2022-11-10T13:55:16.221Z,1.58
2022-11-10T13:57:57.156Z,1.40
2022-11-10T14:00:28.160Z,1.30
2022-11-10T14:02:57.307Z,1.33
2022-11-10T14:06:05.356Z,1.48
2022-11-10T14:08:38.641Z,1.83
2022-11-10T14:11:12.285Z,1.83
2022-11-10T14:13:42.432Z,1.65
2022-11-10T14:16:16.851Z,1.55
2022-11-10T14:18:49.419Z,1.73
2022-11-10T14:21:23.790Z,1.77
2022-11-10T14:23:52.465Z,1.55
2022-11-10T14:26:23.433Z,1.75
2022-11-10T14:28:51.086Z,1.40
2022-11-10T14:31:21.361Z,2.53
2022-11-10T14:33:56.463Z,1.23
2022-11-10T14:36:24.057Z,1.52
2022-11-10T14:38:51.737Z,1.70
2022-11-10T14:41:19.879Z,1.40
2022-11-10T14:44:00.540Z,1.58
2022-11-10T14:46:29.593Z,1.52
2022-11-10T14:48:57.447Z,2.03
2022-11-10T14:51:25.210Z,1.85
2022-11-10T14:53:53.975Z,1.42
2022-11-10T14:56:22.677Z,1.45
2022-11-10T14:58:50.285Z,1.73
2022-11-10T15:01:24.681Z,1.90
2022-11-10T15:03:53.702Z,1.65
2022-11-10T15:06:21.130Z,1.70
2022-11-10T15:08:48.656Z,1.38
2022-11-10T15:11:36.022Z,1.50
2022-11-10T15:14:03.372Z,1.50
2022-11-10T15:16:31.223Z,1.55
2022-11-10T15:19:24.656Z,1.45
2022-11-10T15:21:52.174Z,1.35
2022-11-10T15:24:19.684Z,1.60
2022-11-10T15:26:47.296Z,1.88
2022-11-10T15:29:19.936Z,1.80
2022-11-10T15:31:47.722Z,1.90
2022-11-10T15:34:39.037Z,1.75
2022-11-10T15:37:20.812Z,1.50
2022-11-10T15:39:48.383Z,2.63
2022-11-10T15:42:17.488Z,2.45
2022-11-10T15:44:45.851Z,1.85
2022-11-10T15:47:13.447Z,2.28
2022-11-10T15:49:42.411Z,1.65
2022-11-10T15:52:17.676Z,2.00
2022-11-10T15:54:45.191Z,2.13
2022-11-10T15:57:13.732Z,1.90
2022-11-10T15:59:41.532Z,2.00
2022-11-10T16:02:21.019Z,1.98
2022-11-10T16:04:54.428Z,1.95
2022-11-10T16:07:24.649Z,2.13
2022-11-10T16:09:52.083Z,1.92
2022-11-10T16:12:21.804Z,1.98
2022-11-10T16:14:52.305Z,2.00
2022-11-10T16:17:19.854Z,2.20
2022-11-10T16:19:47.396Z,2.38
2022-11-10T16:22:16.211Z,3.60
2022-11-10T16:24:45.454Z,4.10
2022-11-10T16:27:13.740Z,4.28
2022-11-10T16:29:41.168Z,11.15
2022-11-10T16:32:10.295Z,8.40
2022-11-10T16:34:38.042Z,18.10
2022-11-10T16:37:05.678Z,16.38
2022-11-10T16:39:35.021Z,19.60
2022-11-10T16:42:02.337Z,21.95
2022-11-10T16:44:29.859Z,23.05
2022-11-10T16:46:57.362Z,22.95
2022-11-10T16:49:27.737Z,21.92
2022-11-10T16:51:55.090Z,23.20
2022-11-10T16:54:22.664Z,25.42
2022-11-10T16:56:51.434Z,26.02
2022-11-10T16:59:18.816Z,29.92
2022-11-10T17:01:48.087Z,26.80
2022-11-10T17:04:15.517Z,33.35
2022-11-10T17:06:42.851Z,34.67
2022-11-10T17:09:14.627Z,37.15
2022-11-10T17:11:42.102Z,37.90
2022-11-10T17:14:12.747Z,36.92
2022-11-10T17:16:41.133Z,37.60
2022-11-10T17:19:09.943Z,38.22
2022-11-10T17:21:37.594Z,37.40
2022-11-10T17:24:05.742Z,37.55
2022-11-10T17:26:33.246Z,36.58
2022-11-10T17:29:00.856Z,36.88
2022-11-10T17:31:30.045Z,35.58
2022-11-10T17:33:57.562Z,35.85
2022-11-10T17:36:25.134Z,34.83
2022-11-10T17:38:52.674Z,37.50
2022-11-10T17:41:20.481Z,34.70
2022-11-10T17:43:48.010Z,34.05
2022-11-10T17:46:15.602Z,33.75
2022-11-10T17:48:44.524Z,32.13
2022-11-10T17:51:13.935Z,33.45
2022-11-10T17:53:43.085Z,33.78
2022-11-10T17:56:10.598Z,30.67
2022-11-10T17:58:38.090Z,32.92
2022-11-10T18:01:12.178Z,32.83
2022-11-10T18:03:39.822Z,32.03
2022-11-10T18:06:11.036Z,32.25
2022-11-10T18:08:38.539Z,30.70
2022-11-10T18:11:06.254Z,32.53
2022-11-10T18:13:33.802Z,32.85
2022-11-10T18:16:01.078Z,32.20
2022-11-10T18:18:32.558Z,32.90
2022-11-10T18:21:02.742Z,31.08
2022-11-10T18:23:31.917Z,32.28
2022-11-10T18:26:04.350Z,29.55
2022-11-10T18:28:31.691Z,30.52
2022-11-10T18:31:02.001Z,29.58
2022-11-10T18:33:31.238Z,26.52
2022-11-10T18:35:59.113Z,26.35
2022-11-10T18:38:26.697Z,24.75
2022-11-10T18:40:55.618Z,24.23
2022-11-10T18:43:23.416Z,22.95
2022-11-10T18:45:54.571Z,23.55
2022-11-10T18:48:25.795Z,21.98
2022-11-10T18:50:57.021Z,19.05
2022-11-10T18:53:24.645Z,19.88
2022-11-10T18:55:56.671Z,21.83
2022-11-10T18:58:24.041Z,20.52
2022-11-10T19:00:51.613Z,20.58
2022-11-10T19:03:19.237Z,19.42
2022-11-10T19:05:46.922Z,18.50
2022-11-10T19:08:14.418Z,18.65
2022-11-10T19:10:42.374Z,20.15
2022-11-10T19:13:11.333Z,17.45
2022-11-10T19:15:40.627Z,17.85
2022-11-10T19:18:08.216Z,18.42
2022-11-10T19:20:35.764Z,16.40
2022-11-10T19:23:03.410Z,16.40
2022-11-10T19:25:31.078Z,16.15
2022-11-10T19:27:58.658Z,13.93
2022-11-10T19:30:27.791Z,14.82
2022-11-10T19:32:55.391Z,15.18
2022-11-10T19:35:23.408Z,15.07
2022-11-10T19:37:51.019Z,13.27
2022-11-10T19:40:18.654Z,14.48
2022-11-10T19:42:46.228Z,14.15
2022-11-10T19:45:13.874Z,13.85
2022-11-10T19:47:43.043Z,13.38
2022-11-10T19:50:10.559Z,13.25
2022-11-10T19:52:38.095Z,13.15
2022-11-10T19:55:06.362Z,12.80
2022-11-10T19:57:34.336Z,11.88
2022-11-10T20:00:02.080Z,12.25
2022-11-10T20:02:29.655Z,13.15
2022-11-10T20:04:58.641Z,11.75
2022-11-10T20:07:26.200Z,12.10
2022-11-10T20:09:53.936Z,12.02
2022-11-10T20:12:21.574Z,12.35
2022-11-10T20:14:49.166Z,11.75
2022-11-10T20:17:16.760Z,11.95
2022-11-10T20:19:44.447Z,11.02
2022-11-10T20:22:13.594Z,10.00
2022-11-10T20:24:41.154Z,9.60
2022-11-10T20:27:08.838Z,10.65
2022-11-10T20:29:36.398Z,10.30
2022-11-10T20:32:04.205Z,10.35
2022-11-10T20:34:31.801Z,9.15
2022-11-10T20:36:59.302Z,8.50
2022-11-10T20:39:28.304Z,9.80
2022-11-10T20:41:56.044Z,9.63
2022-11-10T20:44:23.626Z,9.02
2022-11-10T20:46:55.309Z,8.70
2022-11-10T20:49:23.567Z,8.57
2022-11-10T20:51:51.100Z,7.60
2022-11-10T20:54:18.821Z,8.55
2022-11-10T20:56:47.908Z,7.50
2022-11-10T20:59:15.567Z,8.27
2022-11-10T21:01:43.206Z,7.82
2022-11-10T21:04:10.739Z,6.97
2022-11-10T21:06:38.309Z,6.88
2022-11-10T21:09:05.999Z,7.32
2022-11-10T21:11:33.632Z,7.45
2022-11-10T21:14:02.681Z,6.50
2022-11-10T21:16:30.175Z,6.75
2022-11-10T21:18:57.793Z,5.53
2022-11-10T21:21:26.738Z,6.20
2022-11-10T21:23:54.489Z,5.95
2022-11-10T21:26:22.118Z,5.30
2022-11-10T21:28:49.839Z,5.80
2022-11-10T21:31:18.870Z,5.55
2022-11-10T21:33:46.490Z,4.63
2022-11-10T21:36:14.152Z,5.32
2022-11-10T21:38:45.175Z,5.18
2022-11-10T21:41:12.770Z,4.70
2022-11-10T21:43:40.488Z,4.80
2022-11-10T21:46:08.259Z,5.38
2022-11-10T21:48:37.304Z,4.50
2022-11-10T21:51:05.993Z,4.32
2022-11-10T21:53:33.745Z,4.00
2022-11-10T21:56:01.861Z,4.30
2022-11-10T21:58:29.475Z,3.63
2022-11-10T22:01:01.158Z,3.95
2022-11-10T22:03:28.813Z,3.85
2022-11-10T22:06:03.325Z,4.35
2022-11-10T22:08:30.802Z,4.25
2022-11-10T22:10:58.321Z,3.90
2022-11-10T22:13:26.125Z,4.78
2022-11-10T22:15:53.935Z,3.88
2022-11-10T22:18:21.449Z,4.05
2022-11-10T22:20:49.240Z,3.72
2022-11-10T22:23:18.325Z,3.53
2022-11-10T22:25:45.999Z,3.20
2022-11-10T22:28:13.729Z,3.45
2022-11-10T22:30:41.307Z,3.22
2022-11-10T22:33:08.858Z,3.47
2022-11-10T22:35:36.432Z,2.75
2022-11-10T22:38:04.895Z,2.95
2022-11-10T22:40:33.975Z,3.22
2022-11-10T22:43:02.008Z,3.42
2022-11-10T22:45:29.543Z,3.22
2022-11-10T22:47:57.081Z,3.22
2022-11-10T22:50:24.635Z,3.15
2022-11-10T22:52:52.139Z,3.10
2022-11-10T22:55:19.677Z,2.42
2022-11-10T22:57:48.845Z,2.65
2022-11-10T23:00:18.108Z,3.10
2022-11-10T23:02:45.732Z,2.92
2022-11-10T23:05:13.389Z,2.13
2022-11-10T23:07:40.947Z,2.53
2022-11-10T23:10:09.161Z,1.90
2022-11-10T23:12:36.692Z,2.70
2022-11-10T23:15:06.583Z,1.95
2022-11-10T23:17:34.102Z,1.83
2022-11-10T23:20:01.742Z,2.65
2022-11-10T23:22:29.347Z,2.30
2022-11-10T23:24:57.619Z,2.30
2022-11-10T23:27:25.507Z,2.08
2022-11-10T23:29:53.181Z,2.40
2022-11-10T23:32:22.129Z,2.42
2022-11-10T23:34:49.617Z,2.15
2022-11-10T23:37:17.175Z,1.92
2022-11-10T23:39:44.752Z,2.10
2022-11-10T23:42:12.326Z,2.85
2022-11-10T23:44:39.960Z,1.80
2022-11-10T23:47:07.487Z,2.35
2022-11-10T23:49:36.677Z,2.42
2022-11-10T23:52:04.559Z,2.00
2022-11-10T23:54:32.119Z,1.90
2022-11-10T23:56:59.628Z,2.25
2022-11-10T23:59:27.151Z,2.38
